Time;durP1;ratioP1;P1;durP2;ratioP2;P2;SDS_P1;SDS_P2;PMS_P1;PMS_P2;Temp;Humidity;BMP_temperature;BMP_pressure;BME280_temperature;BME280_humidity;BME280_pressure;Samples;Min_cycle;Max_cycle;Signal;HPM_P1;HPM_P2
2022/08/20 00:00:26;;;;;;;;;;;;;;;;;;5010665;28;20325;-89
2022/08/20 00:02:51;;;;;;;;;;;;;;;;;;5002239;28;19924;-89
2022/08/20 00:05:16;;;;;;;;;;;;;;;;;;5010685;28;20362;-89
2022/08/20 00:07:41;;;;;;;;;;;;;;;;;;4996548;28;19979;-88
2022/08/20 00:10:06;;;;;;;;;;;;;;;;;;5016505;28;20276;-89
2022/08/20 00:12:32;;;;;;;;;;;;;;;;;;5010484;28;19968;-89
2022/08/20 00:14:57;;;;;;;;;;;;;;;;;;5009007;28;20363;-90
2022/08/20 00:17:22;;;;;;;;;;;;;;;;;;4983314;28;19915;-89
2022/08/20 00:19:47;;;;;;;;;;;;;;;;;;4995899;28;20027;-89
2022/08/20 00:22:12;;;;;;;;;;;;;;;;;;5013753;28;19917;-89
2022/08/20 00:24:37;;;;;;;;;;;;;;;;;;5012681;28;20390;-90
2022/08/20 00:27:02;;;;;;;;;;;;;;;;;;5007335;28;19968;-89
2022/08/20 00:29:28;;;;;;;;;;;;;;;;;;5013282;28;20610;-89
2022/08/20 00:31:53;;;;;;;;;;;;;;;;;;5014911;28;19967;-90
2022/08/20 00:34:18;;;;;;;;;;;;;;;;;;5006258;28;19937;-90
2022/08/20 00:36:43;;;;;;;;;;;;;;;;;;4990642;28;19946;-89
2022/08/20 00:39:09;;;;;;;;;;;;;;;;;;4990455;28;19913;-90
2022/08/20 00:41:34;;;;;;;;;;;;;;;;;;5009560;28;19918;-89
2022/08/20 00:43:59;;;;;;;;;;;;;;;;;;5013750;28;20320;-89
2022/08/20 00:46:24;;;;;;;;;;;;;;;;;;5010384;28;19984;-89
2022/08/20 00:48:49;;;;;;;;;;;;;;;;;;4999327;28;20108;-89
2022/08/20 00:51:15;;;;;;;;;;;;;;;;;;5010991;28;20177;-89
2022/08/20 00:53:40;;;;;;;;;;;;;;;;;;5002176;28;19921;-89
2022/08/20 00:56:06;;;;;;;;;;;;;;;;;;5011792;28;19918;-90
2022/08/20 00:58:31;;;;;;;;;;;;;;;;;;5013392;28;20043;-88
2022/08/20 01:00:56;;;;;;;;;;;;;;;;;;5024188;28;20014;-89
2022/08/20 01:03:21;;;;;;;;;;;;;;;;;;5021586;28;19913;-89
2022/08/20 01:05:47;;;;;;;;;;;;;;;;;;5007180;28;20019;-89
2022/08/20 01:08:12;;;;;;;;;;;;;;;;;;5018688;28;19967;-89
2022/08/20 01:10:37;;;;;;;;;;;;;;;;;;5023232;28;20271;-89
2022/08/20 01:13:02;;;;;;;;;;;;;;;;;;5029565;28;19928;-89
2022/08/20 01:15:28;;;;;;;;;;;;;;;;;;5027618;28;19967;-89
2022/08/20 01:17:53;;;;;;;;;;;;;;;;;;5022942;28;19913;-90
2022/08/20 01:20:19;;;;;;;;;;;;;;;;;;5028051;28;19913;-89
2022/08/20 01:25:28;;;;;;;;;;;;;;;;;;5027222;28;19920;-89
2022/08/20 01:27:53;;;;;;;;;;;;;;;;;;5023697;28;20314;-90
2022/08/20 01:30:18;;;;;;;;;;;;;;;;;;5023550;28;19992;-89
2022/08/20 01:32:43;;;;;;;;;;;;;;;;;;5025849;28;19913;-89
2022/08/20 01:35:09;;;;;;;;;;;;;;;;;;5023543;28;19913;-90
2022/08/20 01:37:34;;;;;;;;;;;;;;;;;;5008543;28;19967;-89
2022/08/20 01:39:59;;;;;;;;;;;;;;;;;;5030561;28;19913;-89
2022/08/20 01:42:24;;;;;;;;;;;;;;;;;;5030848;28;19929;-88
2022/08/20 01:44:51;;;;;;;;;;;;;;;;;;5029530;28;19913;-89
2022/08/20 01:47:16;;;;;;;;;;;;;;;;;;5031122;28;19932;-89
2022/08/20 01:49:42;;;;;;;;;;;;;;;;;;5029662;28;20000;-89
2022/08/20 01:52:07;;;;;;;;;;;;;;;;;;5029067;28;19947;-89
2022/08/20 01:54:33;;;;;;;;;;;;;;;;;;5028877;28;19948;-89
2022/08/20 01:56:58;;;;;;;;;;;;;;;;;;5029573;28;19967;-90
2022/08/20 01:59:23;;;;;;;;;;;;;;;;;;5032218;28;19917;-89
2022/08/20 02:01:49;;;;;;;;;;;;;;;;;;5012377;28;19917;-89
2022/08/20 02:04:15;;;;;;;;;;;;;;;;;;5029642;28;19954;-89
2022/08/20 02:06:40;;;;;;;;;;;;;;;;;;5030447;28;19913;-89
2022/08/20 02:09:05;;;;;;;;;;;;;;;;;;5028447;28;20370;-89
2022/08/20 02:11:31;;;;;;;;;;;;;;;;;;5014852;28;20152;-89
2022/08/20 02:13:57;;;;;;;;;;;;;;;;;;5026466;28;20114;-89
2022/08/20 02:16:22;;;;;;;;;;;;;;;;;;5028095;28;19913;-89
2022/08/20 02:18:47;;;;;;;;;;;;;;;;;;5026250;28;20401;-89
2022/08/20 02:21:12;;;;;;;;;;;;;;;;;;5025520;28;20402;-90
2022/08/20 02:23:37;;;;;;;;;;;;;;;;;;5013234;28;19913;-89
2022/08/20 02:26:03;;;;;;;;;;;;;;;;;;5030593;28;20262;-89
2022/08/20 02:28:28;;;;;;;;;;;;;;;;;;5028338;28;19919;-89
2022/08/20 02:30:54;;;;;;;;;;;;;;;;;;5029016;28;19913;-89
2022/08/20 02:33:19;;;;;;;;;;;;;;;;;;5031617;28;19917;-89
2022/08/20 02:35:44;;;;;;;;;;;;;;;;;;5031729;28;19917;-90
2022/08/20 02:38:09;;;;;;;;;;;;;;;;;;5030006;28;20347;-89
2022/08/20 02:40:35;;;;;;;;;;;;;;;;;;5027445;28;19921;-89
2022/08/20 02:43:00;;;;;;;;;;;;;;;;;;5028544;28;20483;-90
2022/08/20 02:45:25;;;;;;;;;;;;;;;;;;5031612;28;19927;-89
2022/08/20 02:47:55;;;;;;;;;;;;;;;;;;5029705;28;19925;-89
2022/08/20 02:50:21;;;;;;;;;;;;;;;;;;5032407;28;19917;-89
2022/08/20 02:52:46;;;;;;;;;;;;;;;;;;5033845;28;20664;-89
2022/08/20 02:55:11;;;;;;;;;;;;;;;;;;5025723;28;19913;-89
2022/08/20 02:57:37;;;;;;;;;;;;;;;;;;5025981;28;20358;-89
2022/08/20 03:00:02;;;;;;;;;;;;;;;;;;5024029;28;19932;-89
2022/08/20 03:02:28;;;;;;;;;;;;;;;;;;5031011;28;20016;-88
2022/08/20 03:04:53;;;;;;;;;;;;;;;;;;5026917;28;19917;-89
2022/08/20 03:07:19;;;;;;;;;;;;;;;;;;5029218;28;19955;-90
2022/08/20 03:09:44;;;;;;;;;;;;;;;;;;5028809;28;19917;-89
2022/08/20 03:12:09;;;;;;;;;;;;;;;;;;5029379;28;19958;-89
2022/08/20 03:14:34;;;;;;;;;;;;;;;;;;5028515;28;19917;-89
2022/08/20 03:17:00;;;;;;;;;;;;;;;;;;5029448;28;19940;-90
2022/08/20 03:19:25;;;;;;;;;;;;;;;;;;5029021;28;20420;-89
2022/08/20 03:21:50;;;;;;;;;;;;;;;;;;5030163;28;19917;-89
2022/08/20 03:24:15;;;;;;;;;;;;;;;;;;5025774;28;19921;-89
2022/08/20 03:26:40;;;;;;;;;;;;;;;;;;5028442;28;20008;-89
2022/08/20 03:29:05;;;;;;;;;;;;;;;;;;5029148;28;19921;-89
2022/08/20 03:31:31;;;;;;;;;;;;;;;;;;5027964;28;20437;-88
2022/08/20 03:33:56;;;;;;;;;;;;;;;;;;5027905;28;19958;-88
2022/08/20 03:36:21;;;;;;;;;;;;;;;;;;5029632;28;19913;-88
2022/08/20 03:38:46;;;;;;;;;;;;;;;;;;5025601;28;19920;-89
2022/08/20 03:41:11;;;;;;;;;;;;;;;;;;5031301;28;20367;-89
2022/08/20 03:43:37;;;;;;;;;;;;;;;;;;5030988;28;20389;-88
2022/08/20 03:46:03;;;;;;;;;;;;;;;;;;5031315;28;19921;-89
2022/08/20 03:48:28;;;;;;;;;;;;;;;;;;5025864;28;19947;-89
2022/08/20 03:50:57;;;;;;;;;;;;;;;;;;5029295;28;20359;-89
2022/08/20 03:53:22;;;;;;;;;;;;;;;;;;5024841;28;19936;-89
2022/08/20 03:55:47;;;;;;;;;;;;;;;;;;5026950;28;20387;-88
2022/08/20 03:58:13;;;;;;;;;;;;;;;;;;5025660;28;19913;-89
2022/08/20 04:00:38;;;;;;;;;;;;;;;;;;5029670;28;19914;-89
2022/08/20 04:03:03;;;;;;;;;;;;;;;;;;5028610;28;20269;-89
2022/08/20 04:05:28;;;;;;;;;;;;;;;;;;5025588;28;19920;-89
2022/08/20 04:07:54;;;;;;;;;;;;;;;;;;5024574;28;19913;-88
2022/08/20 04:10:19;;;;;;;;;;;;;;;;;;5028559;28;19982;-89
2022/08/20 04:12:44;;;;;;;;;;;;;;;;;;5030070;28;20011;-89
2022/08/20 04:15:09;;;;;;;;;;;;;;;;;;5029977;28;19936;-88
2022/08/20 04:17:34;;;;;;;;;;;;;;;;;;5008276;28;19953;-90
2022/08/20 04:19:59;;;;;;;;;;;;;;;;;;5032449;28;19956;-89
2022/08/20 04:22:25;;;;;;;;;;;;;;;;;;5028657;28;20414;-89
2022/08/20 04:24:50;;;;;;;;;;;;;;;;;;5023347;28;19913;-89
2022/08/20 04:27:15;;;;;;;;;;;;;;;;;;5026790;28;20299;-89
2022/08/20 04:29:41;;;;;;;;;;;;;;;;;;5030970;28;19913;-89
2022/08/20 04:32:07;;;;;;;;;;;;;;;;;;5030217;28;19925;-89
2022/08/20 04:34:32;;;;;;;;;;;;;;;;;;5028797;28;19992;-89
2022/08/20 04:36:57;;;;;;;;;;;;;;;;;;5028070;28;20000;-89
2022/08/20 04:39:22;;;;;;;;;;;;;;;;;;5025854;28;19913;-90
2022/08/20 04:41:47;;;;;;;;;;;;;;;;;;5026123;28;20008;-89
2022/08/20 04:44:13;;;;;;;;;;;;;;;;;;5029558;28;20371;-89
2022/08/20 04:46:38;;;;;;;;;;;;;;;;;;5027262;28;20395;-88
2022/08/20 04:49:03;;;;;;;;;;;;;;;;;;5034694;28;19920;-89
2022/08/20 04:51:28;;;;;;;;;;;;;;;;;;5028018;28;20267;-89
2022/08/20 04:53:53;;;;;;;;;;;;;;;;;;5025385;28;19924;-89
2022/08/20 04:56:22;;;;;;;;;;;;;;;;;;5024690;28;19914;-88
2022/08/20 04:58:47;;;;;;;;;;;;;;;;;;5027446;28;19925;-88
2022/08/20 05:01:13;;;;;;;;;;;;;;;;;;5028061;28;20375;-89
2022/08/20 05:03:38;;;;;;;;;;;;;;;;;;5027349;28;20004;-89
2022/08/20 05:06:04;;;;;;;;;;;;;;;;;;5026307;28;19996;-88
2022/08/20 05:08:30;;;;;;;;;;;;;;;;;;5024071;28;20325;-88
2022/08/20 05:10:56;;;;;;;;;;;;;;;;;;5027096;28;19920;-88
2022/08/20 05:13:21;;;;;;;;;;;;;;;;;;5031374;28;19913;-88
2022/08/20 05:15:47;;;;;;;;;;;;;;;;;;5028249;28;19914;-89
2022/08/20 05:18:13;;;;;;;;;;;;;;;;;;5028256;28;19917;-88
2022/08/20 05:20:39;;;;;;;;;;;;;;;;;;5032258;28;19936;-89
2022/08/20 05:23:04;;;;;;;;;;;;;;;;;;5030876;28;19975;-89
2022/08/20 05:25:29;;;;;;;;;;;;;;;;;;5029919;28;19965;-88
2022/08/20 05:27:54;;;;;;;;;;;;;;;;;;5030630;28;19913;-89
2022/08/20 05:30:19;;;;;;;;;;;;;;;;;;5031937;28;19913;-88
2022/08/20 05:32:45;;;;;;;;;;;;;;;;;;5030038;28;19920;-89
2022/08/20 05:35:11;;;;;;;;;;;;;;;;;;5027548;28;20036;-88
2022/08/20 05:37:36;;;;;;;;;;;;;;;;;;5032315;28;20012;-89
2022/08/20 05:40:01;;;;;;;;;;;;;;;;;;5034097;28;19975;-88
2022/08/20 05:42:27;;;;;;;;;;;;;;;;;;5011410;28;19928;-89
2022/08/20 05:44:53;;;;;;;;;;;;;;;;;;5032966;28;19914;-89
2022/08/20 05:47:18;;;;;;;;;;;;;;;;;;5012663;28;19920;-88
2022/08/20 05:49:45;;;;;;;;;;;;;;;;;;5012692;28;19970;-89
2022/08/20 05:52:10;;;;;;;;;;;;;;;;;;5013312;28;19916;-87
2022/08/20 05:54:37;;;;;;;;;;;;;;;;;;5032516;28;20012;-88
2022/08/20 05:57:02;;;;;;;;;;;;;;;;;;5029737;28;19921;-88
2022/08/20 05:59:27;;;;;;;;;;;;;;;;;;5027044;28;19924;-87
2022/08/20 06:01:52;;;;;;;;;;;;;;;;;;5029875;28;20010;-88
2022/08/20 06:04:24;;;;;;;;;;;;;;;;;;5032019;28;20044;-88
2022/08/20 06:06:50;;;;;;;;;;;;;;;;;;5028206;28;20392;-88
2022/08/20 06:09:15;;;;;;;;;;;;;;;;;;5030671;28;19920;-88
2022/08/20 06:11:40;;;;;;;;;;;;;;;;;;5031243;28;19914;-87
2022/08/20 06:14:06;;;;;;;;;;;;;;;;;;5031126;28;20180;-88
2022/08/20 06:16:31;;;;;;;;;;;;;;;;;;5028722;28;19987;-88
2022/08/20 06:18:56;;;;;;;;;;;;;;;;;;5030738;28;19925;-88
2022/08/20 06:21:21;;;;;;;;;;;;;;;;;;5026687;28;20567;-87
2022/08/20 06:23:47;;;;;;;;;;;;;;;;;;5027038;28;19951;-88
2022/08/20 06:26:16;;;;;;;;;;;;;;;;;;5028824;28;19924;-87
2022/08/20 06:28:41;;;;;;;;;;;;;;;;;;5025218;28;20075;-86
2022/08/20 06:31:08;;;;;;;;;;;;;;;;;;5029127;28;19922;-87
2022/08/20 06:33:33;;;;;;;;;;;;;;;;;;5027936;28;19921;-88
2022/08/20 06:35:58;;;;;;;;;;;;;;;;;;5026908;28;19920;-88
2022/08/20 06:38:24;;;;;;;;;;;;;;;;;;5009986;28;20441;-87
2022/08/20 06:40:49;;;;;;;;;;;;;;;;;;5028895;28;19939;-87
2022/08/20 06:43:14;;;;;;;;;;;;;;;;;;5027158;28;19920;-86
2022/08/20 06:45:39;;;;;;;;;;;;;;;;;;5027092;28;19913;-88
2022/08/20 06:48:05;;;;;;;;;;;;;;;;;;5025967;28;19917;-87
2022/08/20 06:50:30;;;;;;;;;;;;;;;;;;5010086;28;19917;-88
2022/08/20 06:52:55;;;;;;;;;;;;;;;;;;5027200;28;19940;-88
2022/08/20 06:55:20;;;;;;;;;;;;;;;;;;5026816;28;19971;-87
2022/08/20 06:57:47;;;;;;;;;;;;;;;;;;5026898;28;19917;-88
2022/08/20 07:00:13;;;;;;;;;;;;;;;;;;5029940;28;20316;-87
2022/08/20 07:02:38;;;;;;;;;;;;;;;;;;5025758;28;19931;-88
2022/08/20 07:05:04;;;;;;;;;;;;;;;;;;5019534;28;19924;-87
2022/08/20 07:07:29;;;;;;;;;;;;;;;;;;5026781;28;19964;-88
2022/08/20 07:09:54;;;;;;;;;;;;;;;;;;5027444;28;19956;-87
2022/08/20 07:12:19;;;;;;;;;;;;;;;;;;5025350;28;20430;-87
2022/08/20 07:14:44;;;;;;;;;;;;;;;;;;5026870;28;19953;-88
2022/08/20 07:17:09;;;;;;;;;;;;;;;;;;5023711;28;20508;-87
2022/08/20 07:19:34;;;;;;;;;;;;;;;;;;5022236;28;19928;-87
2022/08/20 07:22:00;;;;;;;;;;;;;;;;;;5028265;28;19968;-87
2022/08/20 07:24:26;;;;;;;;;;;;;;;;;;5025762;28;19921;-88
2022/08/20 07:26:55;;;;;;;;;;;;;;;;;;5024754;28;20084;-88
2022/08/20 07:29:20;;;;;;;;;;;;;;;;;;5027425;28;19918;-87
2022/08/20 07:34:30;;;;;;;;;;;;;;;;;;5023065;28;20477;-87
2022/08/20 07:36:55;;;;;;;;;;;;;;;;;;5026383;28;19999;-87
2022/08/20 07:39:20;;;;;;;;;;;;;;;;;;5025757;28;19913;-87
2022/08/20 07:42:01;;;;;;;;;;;;;;;;;;5024298;28;19983;-88
2022/08/20 07:44:26;;;;;;;;;;;;;;;;;;5006748;28;20140;-87
2022/08/20 07:46:51;;;;;;;;;;;;;;;;;;5021097;28;20371;-88
2022/08/20 07:49:17;;;;;;;;;;;;;;;;;;5024163;28;19933;-87
2022/08/20 07:51:42;;;;;;;;;;;;;;;;;;5026289;28;20370;-87
2022/08/20 07:54:07;;;;;;;;;;;;;;;;;;5026589;28;19920;-88
2022/08/20 07:56:33;;;;;;;;;;;;;;;;;;5024520;28;20450;-87
2022/08/20 07:58:58;;;;;;;;;;;;;;;;;;5024305;28;19949;-86
2022/08/20 08:01:28;;;;;;;;;;;;;;;;;;5022734;28;20398;-88
2022/08/20 08:03:53;;;;;;;;;;;;;;;;;;5025611;28;19971;-88
2022/08/20 08:06:19;;;;;;;;;;;;;;;;;;5022331;28;19917;-87
2022/08/20 08:08:44;;;;;;;;;;;;;;;;;;5019923;28;20401;-87
2022/08/20 08:11:09;;;;;;;;;;;;;;;;;;5025037;28;19923;-88
2022/08/20 08:13:34;;;;;;;;;;;;;;;;;;5024079;28;20325;-88
2022/08/20 08:16:00;;;;;;;;;;;;;;;;;;5025442;28;20251;-87
2022/08/20 08:18:26;;;;;;;;;;;;;;;;;;5023421;28;20369;-87
2022/08/20 08:20:52;;;;;;;;;;;;;;;;;;5020008;28;19943;-86
2022/08/20 08:23:17;;;;;;;;;;;;;;;;;;5022297;28;20362;-88
2022/08/20 08:25:42;;;;;;;;;;;;;;;;;;5018902;28;19913;-86
2022/08/20 08:28:10;;;;;;;;;;;;;;;;;;5016510;28;19928;-86
2022/08/20 08:30:36;;;;;;;;;;;;;;;;;;5022944;28;19913;-87
2022/08/20 08:35:46;;;;;;;;;;;;;;;;;;5021980;28;19964;-87
2022/08/20 08:38:12;;;;;;;;;;;;;;;;;;5019630;28;19949;-87
2022/08/20 08:40:37;;;;;;;;;;;;;;;;;;5020792;28;19952;-86
2022/08/20 08:43:03;;;;;;;;;;;;;;;;;;5023752;28;20054;-86
2022/08/20 08:45:28;;;;;;;;;;;;;;;;;;5021129;28;19929;-87
2022/08/20 08:47:53;;;;;;;;;;;;;;;;;;5005066;28;19921;-86
2022/08/20 08:50:20;;;;;;;;;;;;;;;;;;5024824;28;19917;-87
2022/08/20 08:52:45;;;;;;;;;;;;;;;;;;5020558;28;19914;-87
2022/08/20 08:55:10;;;;;;;;;;;;;;;;;;5021184;28;20542;-86
2022/08/20 08:57:35;;;;;;;;;;;;;;;;;;5022685;28;20413;-86
2022/08/20 09:00:00;;;;;;;;;;;;;;;;;;5023179;28;19924;-85
2022/08/20 09:02:26;;;;;;;;;;;;;;;;;;5025782;28;20448;-86
2022/08/20 09:04:52;;;;;;;;;;;;;;;;;;5023026;28;19921;-85
2022/08/20 09:07:17;;;;;;;;;;;;;;;;;;5025423;28;20394;-86
2022/08/20 09:09:43;;;;;;;;;;;;;;;;;;5023541;28;19967;-86
2022/08/20 09:12:08;;;;;;;;;;;;;;;;;;5023687;28;19913;-85
2022/08/20 09:14:33;;;;;;;;;;;;;;;;;;5025816;28;19913;-85
2022/08/20 09:16:58;;;;;;;;;;;;;;;;;;5019831;28;19975;-85
2022/08/20 09:19:24;;;;;;;;;;;;;;;;;;5006575;28;19913;-86
2022/08/20 09:21:49;;;;;;;;;;;;;;;;;;5020453;28;20379;-86
2022/08/20 09:24:14;;;;;;;;;;;;;;;;;;5025262;28;19963;-86
2022/08/20 09:26:39;;;;;;;;;;;;;;;;;;5021688;28;19924;-85
2022/08/20 09:29:04;;;;;;;;;;;;;;;;;;5004658;28;19986;-85
2022/08/20 09:31:29;;;;;;;;;;;;;;;;;;5018959;28;19960;-85
2022/08/20 09:33:54;;;;;;;;;;;;;;;;;;5018233;28;20359;-86
2022/08/20 09:36:20;;;;;;;;;;;;;;;;;;5018939;28;19913;-85
2022/08/20 09:38:45;;;;;;;;;;;;;;;;;;5019585;28;19920;-86
2022/08/20 09:41:10;;;;;;;;;;;;;;;;;;5006179;28;19929;-85
2022/08/20 09:43:35;;;;;;;;;;;;;;;;;;5001182;28;19983;-86
2022/08/20 09:46:00;;;;;;;;;;;;;;;;;;5019373;28;19921;-86
2022/08/20 09:48:25;;;;;;;;;;;;;;;;;;5017316;28;20009;-86
2022/08/20 09:50:51;;;;;;;;;;;;;;;;;;5021948;28;19920;-86
2022/08/20 09:53:16;;;;;;;;;;;;;;;;;;5021373;28;20286;-86
2022/08/20 09:55:41;;;;;;;;;;;;;;;;;;5016885;28;19921;-86
2022/08/20 09:58:07;;;;;;;;;;;;;;;;;;5022065;28;20190;-86
2022/08/20 10:00:32;;;;;;;;;;;;;;;;;;5022422;28;20008;-86
2022/08/20 10:02:59;;;;;;;;;;;;;;;;;;5025678;28;19917;-86
2022/08/20 10:05:24;;;;;;;;;;;;;;;;;;5025981;28;20195;-85
2022/08/20 10:07:49;;;;;;;;;;;;;;;;;;5003054;28;20424;-85
2022/08/20 10:10:15;;;;;;;;;;;;;;;;;;5021981;28;19920;-88
2022/08/20 10:12:45;;;;;;;;;;;;;;;;;;5009283;28;20334;-85
2022/08/20 10:15:10;;;;;;;;;;;;;;;;;;5029551;28;19936;-85
2022/08/20 10:17:35;;;;;;;;;;;;;;;;;;5027197;28;19913;-86
2022/08/20 10:20:03;;;;;;;;;;;;;;;;;;5028471;28;19921;-84
2022/08/20 10:22:31;;;;;;;;;;;;;;;;;;5026467;28;19913;-85
2022/08/20 10:24:59;;;;;;;;;;;;;;;;;;5024392;28;19970;-86
2022/08/20 10:27:41;;;;;;;;;;;;;;;;;;5022883;28;19917;-86
2022/08/20 10:30:09;;;;;;;;;;;;;;;;;;5028487;28;19914;-85
2022/08/20 10:32:34;;;;;;;;;;;;;;;;;;5027595;28;19917;-85
2022/08/20 10:35:02;;;;;;;;;;;;;;;;;;5026653;28;19917;-84
2022/08/20 10:37:37;;;;;;;;;;;;;;;;;;;;;
2022/08/20 10:40:15;;;;;;;;;;;;;;;;;;;;;
2022/08/20 10:42:42;;;;;;;;;;;;;;;;;;5025839;28;19921;-84
2022/08/20 10:45:10;;;;;;;;;;;;;;;;;;5019448;28;19939;-85
2022/08/20 10:47:35;;;;;;;;;;;;;;;;;;5022845;28;20279;-85
2022/08/20 10:50:02;;;;;;;;;;;;;;;;;;5021782;28;19952;-85
2022/08/20 10:52:27;;;;;;;;;;;;;;;;;;5022609;28;19921;-85
2022/08/20 10:54:53;;;;;;;;;;;;;;;;;;5025484;28;19924;-84
2022/08/20 10:57:20;;;;;;;;;;;;;;;;;;5027748;28;19917;-84
2022/08/20 10:59:45;;;;;;;;;;;;;;;;;;5022585;28;19916;-84
2022/08/20 11:02:19;;;;;;;;;;;;;;;;;;5023202;28;20330;-85
2022/08/20 11:04:44;;;;;;;;;;;;;;;;;;5022356;28;20436;-85
2022/08/20 11:07:10;;;;;;;;;;;;;;;;;;5022938;28;19914;-85
2022/08/20 11:35:20;;;;;;;;;;;;;;;;;;5047787;28;19947;-89
2022/08/20 11:37:53;;;;;;;;;;;;;;;;;;5044998;28;19917;-89
2022/08/20 11:40:24;;;;;;;;;;;;;;;;;;5047438;28;20290;-89
2022/08/20 11:43:08;;;;;;;;;;;;;;;;;;;;;
2022/08/20 11:45:54;;;;;;;;;;;;;;;;;;5040351;28;19917;-89
2022/08/20 11:48:19;;;;;;;;;;;;;;;;;;5026831;22;19929;-87
2022/08/20 11:50:44;;;;;;;;;;;;;;;;;;5001907;28;19917;-86
2022/08/20 11:53:09;;;;;;;;;;;;;;;;;;4998496;28;20321;-86
2022/08/20 11:55:34;;;;;;;;;;;;;;;;;;5005099;28;19917;-86
2022/08/20 11:57:59;;;;;;;;;;;;;;;;;;5006401;28;20262;-87
2022/08/20 12:00:25;;;;;;;;;;;;;;;;;;4999008;28;20392;-86
2022/08/20 12:02:50;;;;;;;;;;;;;;;;;;5001513;28;19926;-86
2022/08/20 12:05:16;;;;;;;;;;;;;;;;;;5004175;28;19922;-86
2022/08/20 12:07:41;;;;;;;;;;;;;;;;;;5003715;28;19924;-86
2022/08/20 12:10:08;;;;;;;;;;;;;;;;;;4984493;28;19921;-85
2022/08/20 12:12:33;;;;;;;;;;;;;;;;;;5001682;28;19918;-86
2022/08/20 12:14:59;;;;;;;;;;;;;;;;;;4993895;28;20253;-86
2022/08/20 12:17:24;;;;;;;;;;;;;;;;;;5000511;28;19929;-86
2022/08/20 12:19:49;;;;;;;;;;;;;;;;;;4993678;28;19944;-86
2022/08/20 12:22:15;;;;;;;;;;;;;;;;;;5002572;28;19922;-86
2022/08/20 12:24:40;;;;;;;;;;;;;;;;;;4999613;28;20024;-87
2022/08/20 12:27:05;;;;;;;;;;;;;;;;;;5001805;28;20311;-86
2022/08/20 12:29:30;;;;;;;;;;;;;;;;;;4999933;28;19940;-86
2022/08/20 12:31:55;;;;;;;;;;;;;;;;;;4995746;28;20080;-86
2022/08/20 12:34:20;;;;;;;;;;;;;;;;;;5001786;28;19917;-86
2022/08/20 12:36:46;;;;;;;;;;;;;;;;;;5002136;28;19924;-86
2022/08/20 12:39:11;;;;;;;;;;;;;;;;;;5001249;28;19920;-86
2022/08/20 12:41:36;;;;;;;;;;;;;;;;;;5000188;28;19927;-85
2022/08/20 12:44:05;;;;;;;;;;;;;;;;;;5000439;28;19967;-86
2022/08/20 12:46:39;;;;;;;;;;;;;;;;;;5004891;28;19952;-87
2022/08/20 12:49:04;;;;;;;;;;;;;;;;;;5006837;28;19917;-88
2022/08/20 12:55:09;;;;;;;;;;;;;;;;;;;;;
2022/08/20 13:00:21;;;;;;;;;;;;;;;;;;4906688;29;19926;-87
2022/08/20 13:03:01;;;;;;;;;;;;;;;;;;4924765;28;19957;-87
2022/08/20 13:08:43;;;;;;;;;;;;;;;;;;4937469;29;19942;-87
2022/08/20 13:11:08;;;;;;;;;;;;;;;;;;4921901;29;20821;-85
2022/08/20 13:13:42;;;;;;;;;;;;;;;;;;4974468;28;19917;-88
2022/08/20 13:16:23;;;;;;;;;;;;;;;;;;5007883;28;19914;-88
2022/08/20 13:21:45;;;;;;;;;;;;;;;;;;5013311;28;19917;-87
2022/08/20 13:27:00;;;;;;;;;;;;;;;;;;4999247;28;19925;-86
2022/08/20 13:29:28;;;;;;;;;;;;;;;;;;5007900;28;19984;-88
2022/08/20 13:31:57;;;;;;;;;;;;;;;;;;5007475;28;19933;-87
2022/08/20 13:37:18;;;;;;;;;;;;;;;;;;5019575;28;19924;-87
2022/08/20 13:48:19;;;;;;;;;;;;;;;;;;5020564;28;19963;-87
2022/08/20 13:50:47;;;;;;;;;;;;;;;;;;4994847;28;19936;-88
2022/08/20 13:53:14;;;;;;;;;;;;;;;;;;5009995;28;20386;-86
2022/08/20 13:58:49;;;;;;;;;;;;;;;;;;4990987;28;20354;-87
2022/08/20 14:01:34;;;;;;;;;;;;;;;;;;5012505;28;19917;-89
2022/08/20 14:04:01;;;;;;;;;;;;;;;;;;5012269;28;19913;-87
2022/08/20 14:06:30;;;;;;;;;;;;;;;;;;5016855;28;19921;-86
2022/08/20 14:09:03;;;;;;;;;;;;;;;;;;5007226;28;19975;-87
2022/08/20 14:17:07;;;;;;;;;;;;;;;;;;4975937;28;20013;-87
2022/08/20 14:25:21;;;;;;;;;;;;;;;;;;4922931;29;19919;-88
2022/08/20 14:27:51;;;;;;;;;;;;;;;;;;4921854;29;19918;-86
2022/08/20 14:30:29;;;;;;;;;;;;;;;;;;;;;
2022/08/20 14:35:45;;;;;;;;;;;;;;;;;;4926704;29;20001;-88
2022/08/20 14:49:25;;;;;;;;;;;;;;;;;;5002312;28;19921;-90
2022/08/20 14:52:00;;;;;;;;;;;;;;;;;;5005252;28;21035;-88
2022/08/20 14:54:36;;;;;;;;;;;;;;;;;;;;;
2022/08/20 15:03:15;;;;;;;;;;;;;;;;;;4945029;28;19922;-86
2022/08/20 15:05:39;;;;;;;;;;;;;;;;;;4942035;28;21165;-85
2022/08/20 15:08:04;;;;;;;;;;;;;;;;;;4947281;28;19919;-85
2022/08/20 15:10:38;;;;;;;;;;;;;;;;;;4943331;28;19970;-85
2022/08/20 15:13:19;;;;;;;;;;;;;;;;;;4983879;28;20027;-86
2022/08/20 15:16:00;;;;;;;;;;;;;;;;;;5007229;28;19920;-85
2022/08/20 15:18:33;;;;;;;;;;;;;;;;;;5005230;28;20494;-85
2022/08/20 15:21:07;;;;;;;;;;;;;;;;;;5008887;28;19914;-87
2022/08/20 15:23:35;;;;;;;;;;;;;;;;;;5003582;28;19917;-86
2022/08/20 16:25:10;;;;;;;;;;;;;;;;;;;;;
2022/08/20 16:39:02;;;;;;;;;;;;;;;;;;4999793;28;19961;-87
2022/08/20 16:56:12;;;;;;;;;;;;;;;;;;;;;
2022/08/20 16:58:41;;;;;;;;;;;;;;;;;;4953581;28;19924;-86
2022/08/20 17:01:06;;;;;;;;;;;;;;;;;;5004625;28;19924;-86
2022/08/20 17:03:47;;;;;;;;;;;;;;;;;;5000250;28;19921;-87
2022/08/20 17:23:06;;;;;;;;;;;;;;;;;;5032066;28;20032;-85
2022/08/20 17:31:21;;;;;;;;;;;;;;;;;;4967573;28;21748;-86
2022/08/20 17:33:46;;;;;;;;;;;;;;;;;;4964205;28;19961;-86
2022/08/20 17:39:11;;;;;;;;;;;;;;;;;;;;;
2022/08/20 17:41:46;;;;;;;;;;;;;;;;;;;;;
2022/08/20 17:50:23;;;;;;;;;;;;;;;;;;4965346;28;19934;-85
2022/08/20 17:55:52;;;;;;;;;;;;;;;;;;4966444;28;20470;-84
2022/08/20 17:59:19;;;;;;;;;;;;;;;;;;4934055;29;19915;-86
2022/08/20 18:01:21;;;;;;;;;;;;;;;;;;;;;
2022/08/20 18:03:49;;;;;;;;;;;;;;;;;;4989108;28;19932;-85
2022/08/20 18:06:17;;;;;;;;;;;;;;;;;;4989609;28;19928;-86
2022/08/20 18:11:31;;;;;;;;;;;;;;;;;;4936054;29;19958;-85
2022/08/20 18:22:53;;;;;;;;;;;;;;;;;;;;;
2022/08/20 18:25:08;;;;;;;;;;;;;;;;;;4924108;29;19923;-85
2022/08/20 18:27:33;;;;;;;;;;;;;;;;;;4933276;29;19998;-85
2022/08/20 18:35:47;;;;;;;;;;;;;;;;;;4934076;29;20418;-87
2022/08/20 18:38:12;;;;;;;;;;;;;;;;;;4933240;29;19951;-84
2022/08/20 18:40:40;;;;;;;;;;;;;;;;;;4931630;29;19992;-86
2022/08/20 18:43:05;;;;;;;;;;;;;;;;;;4958378;28;19921;-84
2022/08/20 18:45:31;;;;;;;;;;;;;;;;;;4993321;28;19924;-87
2022/08/20 18:47:56;;;;;;;;;;;;;;;;;;4990059;28;19914;-86
2022/08/20 18:50:21;;;;;;;;;;;;;;;;;;4992810;28;19953;-86
2022/08/20 18:52:46;;;;;;;;;;;;;;;;;;4985707;28;19913;-87
2022/08/20 18:55:14;;;;;;;;;;;;;;;;;;4989136;28;19914;-87
2022/08/20 18:57:40;;;;;;;;;;;;;;;;;;4991902;28;19922;-86
2022/08/20 19:00:07;;;;;;;;;;;;;;;;;;4990909;28;19914;-85
2022/08/20 19:02:33;;;;;;;;;;;;;;;;;;4972333;28;20302;-85
2022/08/20 19:04:58;;;;;;;;;;;;;;;;;;4987767;28;20004;-86
2022/08/20 19:07:23;;;;;;;;;;;;;;;;;;4990358;28;19928;-85
2022/08/20 19:09:48;;;;;;;;;;;;;;;;;;4989367;28;20005;-85
2022/08/20 19:12:13;;;;;;;;;;;;;;;;;;4993556;28;20474;-86
2022/08/20 19:14:39;;;;;;;;;;;;;;;;;;5000087;28;19914;-85
2022/08/20 19:17:04;;;;;;;;;;;;;;;;;;4990813;28;19957;-87
2022/08/20 19:19:32;;;;;;;;;;;;;;;;;;4983101;28;19925;-85
2022/08/20 19:21:57;;;;;;;;;;;;;;;;;;4991377;28;20648;-86
2022/08/20 19:24:25;;;;;;;;;;;;;;;;;;4973483;28;19919;-87
2022/08/20 19:26:50;;;;;;;;;;;;;;;;;;4990479;28;19918;-86
2022/08/20 19:29:16;;;;;;;;;;;;;;;;;;4986684;28;19924;-86
2022/08/20 19:31:41;;;;;;;;;;;;;;;;;;4993436;28;19929;-85
2022/08/20 19:34:06;;;;;;;;;;;;;;;;;;4988038;28;19997;-86
2022/08/20 19:36:37;;;;;;;;;;;;;;;;;;4993171;28;20604;-87
2022/08/20 19:39:02;;;;;;;;;;;;;;;;;;4976495;28;19927;-87
2022/08/20 19:41:30;;;;;;;;;;;;;;;;;;4971120;28;20501;-86
2022/08/20 19:44:01;;;;;;;;;;;;;;;;;;4990474;28;19948;-86
2022/08/20 19:46:47;;;;;;;;;;;;;;;;;;4995249;28;20033;-87
2022/08/20 19:49:12;;;;;;;;;;;;;;;;;;4993071;28;19960;-87
2022/08/20 19:51:37;;;;;;;;;;;;;;;;;;4991803;28;20383;-87
2022/08/20 19:54:05;;;;;;;;;;;;;;;;;;4989418;28;19925;-88
2022/08/20 19:56:33;;;;;;;;;;;;;;;;;;4989660;28;19913;-85
2022/08/20 19:59:19;;;;;;;;;;;;;;;;;;4989517;28;19922;-86
2022/08/20 20:07:22;;;;;;;;;;;;;;;;;;4993591;28;20303;-87
2022/08/20 20:12:35;;;;;;;;;;;;;;;;;;4980915;28;19921;-86
2022/08/20 20:15:01;;;;;;;;;;;;;;;;;;4992739;28;19922;-88
2022/08/20 20:20:11;;;;;;;;;;;;;;;;;;4990579;28;20442;-87
2022/08/20 20:22:39;;;;;;;;;;;;;;;;;;4991597;28;19922;-87
2022/08/20 20:28:23;;;;;;;;;;;;;;;;;;4970137;28;19976;-86
2022/08/20 20:30:55;;;;;;;;;;;;;;;;;;4998161;28;19961;-85
2022/08/20 20:33:20;;;;;;;;;;;;;;;;;;4988416;28;19921;-86
2022/08/20 20:35:47;;;;;;;;;;;;;;;;;;4993387;28;20088;-87
2022/08/20 20:38:14;;;;;;;;;;;;;;;;;;4992569;28;20009;-86
2022/08/20 20:43:35;;;;;;;;;;;;;;;;;;;;;
2022/08/20 20:46:09;;;;;;;;;;;;;;;;;;4989504;28;19924;-86
2022/08/20 20:51:49;;;;;;;;;;;;;;;;;;4987116;28;19918;-87
2022/08/20 20:54:25;;;;;;;;;;;;;;;;;;;;;
2022/08/20 20:59:39;;;;;;;;;;;;;;;;;;4981320;28;19940;-86
2022/08/20 21:02:04;;;;;;;;;;;;;;;;;;4985792;28;20523;-87
2022/08/20 21:04:29;;;;;;;;;;;;;;;;;;4968363;28;20004;-86
2022/08/20 21:07:02;;;;;;;;;;;;;;;;;;4979877;28;19920;-86